sensor_id;sensor_type;location;lat;lon;timestamp;temperature;humidity
5415;DHT22;2730;51.512;7.504;2022-08-07T05:02:25;12.20;99.90
5415;DHT22;2730;51.512;7.504;2022-08-07T05:04:59;12.20;99.90
5415;DHT22;2730;51.512;7.504;2022-08-07T05:07:33;12.30;99.90
5415;DHT22;2730;51.512;7.504;2022-08-07T05:10:05;12.50;99.90
5415;DHT22;2730;51.512;7.504;2022-08-07T05:12:37;12.70;99.90
5415;DHT22;2730;51.512;7.504;2022-08-07T05:15:07;12.90;99.90
5415;DHT22;2730;51.512;7.504;2022-08-07T05:17:45;12.90;99.90
5415;DHT22;2730;51.512;7.504;2022-08-07T05:20:15;12.90;99.90
5415;DHT22;2730;51.512;7.504;2022-08-07T05:22:44;12.80;99.90
5415;DHT22;2730;51.512;7.504;2022-08-07T05:25:14;12.80;99.90
5415;DHT22;2730;51.512;7.504;2022-08-07T05:27:42;12.80;99.90
5415;DHT22;2730;51.512;7.504;2022-08-07T05:30:10;12.80;99.90
5415;DHT22;2730;51.512;7.504;2022-08-07T05:32:38;12.80;99.90
5415;DHT22;2730;51.512;7.504;2022-08-07T05:35:09;12.80;99.90
5415;DHT22;2730;51.512;7.504;2022-08-07T05:37:38;12.80;99.90
5415;DHT22;2730;51.512;7.504;2022-08-07T05:40:07;12.90;99.90
5415;DHT22;2730;51.512;7.504;2022-08-07T05:42:34;13.00;99.90
5415;DHT22;2730;51.512;7.504;2022-08-07T05:45:02;13.10;99.90
5415;DHT22;2730;51.512;7.504;2022-08-07T05:47:30;13.10;99.90
5415;DHT22;2730;51.512;7.504;2022-08-07T05:49:57;13.20;99.90
5415;DHT22;2730;51.512;7.504;2022-08-07T05:52:26;13.30;99.90
5415;DHT22;2730;51.512;7.504;2022-08-07T05:54:53;13.30;99.90
5415;DHT22;2730;51.512;7.504;2022-08-07T05:57:21;13.40;99.90
5415;DHT22;2730;51.512;7.504;2022-08-07T05:59:49;13.50;99.90
5415;DHT22;2730;51.512;7.504;2022-08-07T06:02:18;13.60;99.90
5415;DHT22;2730;51.512;7.504;2022-08-07T06:04:50;13.70;99.90
5415;DHT22;2730;51.512;7.504;2022-08-07T06:07:18;13.80;99.90
5415;DHT22;2730;51.512;7.504;2022-08-07T06:09:46;13.90;99.90
5415;DHT22;2730;51.512;7.504;2022-08-07T06:12:14;14.10;99.90
5415;DHT22;2730;51.512;7.504;2022-08-07T06:14:41;14.20;99.90
5415;DHT22;2730;51.512;7.504;2022-08-07T06:17:08;14.30;99.90
5415;DHT22;2730;51.512;7.504;2022-08-07T06:19:37;14.40;99.90
5415;DHT22;2730;51.512;7.504;2022-08-07T06:22:06;14.60;99.90
5415;DHT22;2730;51.512;7.504;2022-08-07T06:24:33;14.70;99.90
5415;DHT22;2730;51.512;7.504;2022-08-07T06:27:03;15.10;99.90
5415;DHT22;2730;51.512;7.504;2022-08-07T06:29:30;16.10;99.90
5415;DHT22;2730;51.512;7.504;2022-08-07T06:31:58;17.70;99.90
5415;DHT22;2730;51.512;7.504;2022-08-07T06:34:26;19.70;99.90
5415;DHT22;2730;51.512;7.504;2022-08-07T06:36:54;21.40;99.90
5415;DHT22;2730;51.512;7.504;2022-08-07T06:39:20;23.10;99.90
5415;DHT22;2730;51.512;7.504;2022-08-07T06:41:56;24.50;99.90
5415;DHT22;2730;51.512;7.504;2022-08-07T06:44:27;25.40;99.10
5415;DHT22;2730;51.512;7.504;2022-08-07T06:46:54;26.20;95.40
5415;DHT22;2730;51.512;7.504;2022-08-07T06:49:21;26.50;94.30
5415;DHT22;2730;51.512;7.504;2022-08-07T06:51:48;26.70;93.50
5415;DHT22;2730;51.512;7.504;2022-08-07T06:54:18;27.60;91.70
5415;DHT22;2730;51.512;7.504;2022-08-07T06:56:45;27.80;89.90
5415;DHT22;2730;51.512;7.504;2022-08-07T06:59:17;27.90;89.50
5415;DHT22;2730;51.512;7.504;2022-08-07T07:01:47;27.50;89.10
5415;DHT22;2730;51.512;7.504;2022-08-07T07:04:15;27.50;90.10
5415;DHT22;2730;51.512;7.504;2022-08-07T07:06:42;28.00;89.00
5415;DHT22;2730;51.512;7.504;2022-08-07T07:09:18;28.00;87.10
5415;DHT22;2730;51.512;7.504;2022-08-07T07:11:52;28.20;88.00
5415;DHT22;2730;51.512;7.504;2022-08-07T07:14:23;28.50;86.60
5415;DHT22;2730;51.512;7.504;2022-08-07T07:16:55;28.50;84.90
5415;DHT22;2730;51.512;7.504;2022-08-07T07:19:28;28.20;83.70
5415;DHT22;2730;51.512;7.504;2022-08-07T07:21:56;28.00;82.90
5415;DHT22;2730;51.512;7.504;2022-08-07T07:24:23;28.40;82.90
5415;DHT22;2730;51.512;7.504;2022-08-07T07:26:52;28.20;84.20
5415;DHT22;2730;51.512;7.504;2022-08-07T07:29:24;28.50;82.30
5415;DHT22;2730;51.512;7.504;2022-08-07T07:31:55;28.90;81.90
5415;DHT22;2730;51.512;7.504;2022-08-07T07:34:27;28.80;82.20
5415;DHT22;2730;51.512;7.504;2022-08-07T07:36:55;28.90;79.80
5415;DHT22;2730;51.512;7.504;2022-08-07T07:39:24;28.70;80.10
5415;DHT22;2730;51.512;7.504;2022-08-07T07:41:53;28.60;81.00
5415;DHT22;2730;51.512;7.504;2022-08-07T07:44:22;29.10;79.00
5415;DHT22;2730;51.512;7.504;2022-08-07T07:46:50;29.90;77.90
5415;DHT22;2730;51.512;7.504;2022-08-07T07:49:19;30.20;76.20
5415;DHT22;2730;51.512;7.504;2022-08-07T07:51:48;30.50;74.20
5415;DHT22;2730;51.512;7.504;2022-08-07T07:54:17;30.50;73.50
5415;DHT22;2730;51.512;7.504;2022-08-07T07:56:45;31.00;73.70
5415;DHT22;2730;51.512;7.504;2022-08-07T07:59:14;31.60;71.70
5415;DHT22;2730;51.512;7.504;2022-08-07T08:01:44;31.50;71.30
5415;DHT22;2730;51.512;7.504;2022-08-07T08:04:12;31.20;70.50
5415;DHT22;2730;51.512;7.504;2022-08-07T08:06:42;30.90;70.60
5415;DHT22;2730;51.512;7.504;2022-08-07T08:09:12;30.70;68.90
5415;DHT22;2730;51.512;7.504;2022-08-07T08:11:40;30.30;70.70
5415;DHT22;2730;51.512;7.504;2022-08-07T08:14:08;30.00;68.40
5415;DHT22;2730;51.512;7.504;2022-08-07T08:16:38;30.30;68.20
5415;DHT22;2730;51.512;7.504;2022-08-07T08:19:08;30.60;67.00
5415;DHT22;2730;51.512;7.504;2022-08-07T08:21:38;31.40;64.90
5415;DHT22;2730;51.512;7.504;2022-08-07T08:24:25;31.70;64.10
5415;DHT22;2730;51.512;7.504;2022-08-07T08:27:12;32.10;62.90
5415;DHT22;2730;51.512;7.504;2022-08-07T08:29:43;32.30;62.90
5415;DHT22;2730;51.512;7.504;2022-08-07T08:32:14;32.60;60.80
5415;DHT22;2730;51.512;7.504;2022-08-07T08:34:41;31.90;60.70
5415;DHT22;2730;51.512;7.504;2022-08-07T08:37:11;31.30;62.80
5415;DHT22;2730;51.512;7.504;2022-08-07T08:39:42;31.20;63.00
5415;DHT22;2730;51.512;7.504;2022-08-07T08:42:15;31.00;63.30
5415;DHT22;2730;51.512;7.504;2022-08-07T08:44:52;31.30;64.00
5415;DHT22;2730;51.512;7.504;2022-08-07T08:47:23;31.00;63.50
5415;DHT22;2730;51.512;7.504;2022-08-07T08:49:57;30.80;62.40
5415;DHT22;2730;51.512;7.504;2022-08-07T08:52:29;30.40;63.70
5415;DHT22;2730;51.512;7.504;2022-08-07T08:55:02;30.00;63.80
5415;DHT22;2730;51.512;7.504;2022-08-07T08:57:35;30.40;63.70
5415;DHT22;2730;51.512;7.504;2022-08-07T09:00:05;30.90;63.90
5415;DHT22;2730;51.512;7.504;2022-08-07T09:02:41;31.10;63.20
5415;DHT22;2730;51.512;7.504;2022-08-07T09:05:25;31.50;62.10
5415;DHT22;2730;51.512;7.504;2022-08-07T09:08:01;31.20;60.20
5415;DHT22;2730;51.512;7.504;2022-08-07T09:10:36;30.90;56.50
5415;DHT22;2730;51.512;7.504;2022-08-07T09:13:09;30.40;58.00
5415;DHT22;2730;51.512;7.504;2022-08-07T09:15:46;30.00;57.70
5415;DHT22;2730;51.512;7.504;2022-08-07T09:18:24;30.50;56.60
5415;DHT22;2730;51.512;7.504;2022-08-07T09:21:02;30.50;56.70
5415;DHT22;2730;51.512;7.504;2022-08-07T09:23:40;30.60;58.60
5415;DHT22;2730;51.512;7.504;2022-08-07T09:26:20;30.40;58.80
5415;DHT22;2730;51.512;7.504;2022-08-07T09:28:53;30.30;58.50
5415;DHT22;2730;51.512;7.504;2022-08-07T09:31:35;30.80;56.60
5415;DHT22;2730;51.512;7.504;2022-08-07T09:34:12;30.50;57.70
5415;DHT22;2730;51.512;7.504;2022-08-07T09:36:46;30.00;57.50
5415;DHT22;2730;51.512;7.504;2022-08-07T09:39:21;30.20;57.50
5415;DHT22;2730;51.512;7.504;2022-08-07T09:42:01;30.60;57.10
5415;DHT22;2730;51.512;7.504;2022-08-07T09:44:40;31.00;55.90
5415;DHT22;2730;51.512;7.504;2022-08-07T09:47:16;30.60;56.40
5415;DHT22;2730;51.512;7.504;2022-08-07T09:49:54;30.40;56.50
5415;DHT22;2730;51.512;7.504;2022-08-07T09:52:29;30.70;56.70
5415;DHT22;2730;51.512;7.504;2022-08-07T09:55:05;30.00;55.40
5415;DHT22;2730;51.512;7.504;2022-08-07T10:00:41;30.50;55.70
5415;DHT22;2730;51.512;7.504;2022-08-07T10:03:50;30.10;55.90
5415;DHT22;2730;51.512;7.504;2022-08-07T10:07:06;29.90;56.00
5415;DHT22;2730;51.512;7.504;2022-08-07T10:10:05;30.20;56.00
5415;DHT22;2730;51.512;7.504;2022-08-07T10:13:07;31.10;55.30
5415;DHT22;2730;51.512;7.504;2022-08-07T10:15:59;31.20;53.80
5415;DHT22;2730;51.512;7.504;2022-08-07T10:18:42;31.00;54.00
5415;DHT22;2730;51.512;7.504;2022-08-07T10:21:25;30.20;53.80
5415;DHT22;2730;51.512;7.504;2022-08-07T10:24:10;30.20;53.20
5415;DHT22;2730;51.512;7.504;2022-08-07T10:26:48;30.30;53.90
5415;DHT22;2730;51.512;7.504;2022-08-07T10:29:33;30.70;52.60
5415;DHT22;2730;51.512;7.504;2022-08-07T10:32:18;30.70;52.20
5415;DHT22;2730;51.512;7.504;2022-08-07T10:35:01;30.10;52.50
5415;DHT22;2730;51.512;7.504;2022-08-07T10:37:38;29.90;53.10
5415;DHT22;2730;51.512;7.504;2022-08-07T10:40:10;30.10;52.60
5415;DHT22;2730;51.512;7.504;2022-08-07T10:42:40;29.70;52.80
5415;DHT22;2730;51.512;7.504;2022-08-07T10:45:17;29.40;53.50
5415;DHT22;2730;51.512;7.504;2022-08-07T10:47:50;29.60;53.30
5415;DHT22;2730;51.512;7.504;2022-08-07T10:50:30;29.60;53.20
5415;DHT22;2730;51.512;7.504;2022-08-07T10:53:08;29.10;53.60
5415;DHT22;2730;51.512;7.504;2022-08-07T10:55:42;29.00;53.30
5415;DHT22;2730;51.512;7.504;2022-08-07T10:58:22;29.30;53.70
5415;DHT22;2730;51.512;7.504;2022-08-07T11:01:02;29.70;53.00
5415;DHT22;2730;51.512;7.504;2022-08-07T11:03:37;30.00;52.50
5415;DHT22;2730;51.512;7.504;2022-08-07T11:06:12;29.70;51.70
5415;DHT22;2730;51.512;7.504;2022-08-07T11:08:47;29.20;52.80
5415;DHT22;2730;51.512;7.504;2022-08-07T11:11:21;28.60;52.80
5415;DHT22;2730;51.512;7.504;2022-08-07T11:13:52;27.80;54.10
5415;DHT22;2730;51.512;7.504;2022-08-07T11:16:26;26.60;54.90
5415;DHT22;2730;51.512;7.504;2022-08-07T11:18:59;26.00;54.80
5415;DHT22;2730;51.512;7.504;2022-08-07T11:21:36;25.80;56.40
5415;DHT22;2730;51.512;7.504;2022-08-07T11:24:09;25.70;55.30
5415;DHT22;2730;51.512;7.504;2022-08-07T11:26:42;25.50;55.80
5415;DHT22;2730;51.512;7.504;2022-08-07T11:29:26;25.40;56.70
5415;DHT22;2730;51.512;7.504;2022-08-07T11:32:02;25.20;55.40
5415;DHT22;2730;51.512;7.504;2022-08-07T11:34:35;25.20;55.40
5415;DHT22;2730;51.512;7.504;2022-08-07T11:37:10;25.20;56.20
5415;DHT22;2730;51.512;7.504;2022-08-07T11:39:47;25.30;57.10
5415;DHT22;2730;51.512;7.504;2022-08-07T11:42:20;25.30;56.30
5415;DHT22;2730;51.512;7.504;2022-08-07T11:44:54;25.00;57.40
5415;DHT22;2730;51.512;7.504;2022-08-07T11:47:38;25.00;57.20
5415;DHT22;2730;51.512;7.504;2022-08-07T11:50:15;25.00;57.10
5415;DHT22;2730;51.512;7.504;2022-08-07T11:53:09;25.00;58.10
5415;DHT22;2730;51.512;7.504;2022-08-07T11:55:58;25.00;58.00
5415;DHT22;2730;51.512;7.504;2022-08-07T11:58:35;25.20;57.30
5415;DHT22;2730;51.512;7.504;2022-08-07T12:01:13;25.30;57.50
5415;DHT22;2730;51.512;7.504;2022-08-07T12:04:12;25.20;57.00
5415;DHT22;2730;51.512;7.504;2022-08-07T12:06:46;25.40;57.40
5415;DHT22;2730;51.512;7.504;2022-08-07T12:09:18;25.30;56.70
5415;DHT22;2730;51.512;7.504;2022-08-07T12:11:55;25.40;56.90
5415;DHT22;2730;51.512;7.504;2022-08-07T12:14:26;25.40;56.60
5415;DHT22;2730;51.512;7.504;2022-08-07T12:17:00;25.20;56.60
5415;DHT22;2730;51.512;7.504;2022-08-07T12:19:36;25.10;56.60
5415;DHT22;2730;51.512;7.504;2022-08-07T12:22:11;25.00;56.00
5415;DHT22;2730;51.512;7.504;2022-08-07T12:24:46;24.90;56.40
5415;DHT22;2730;51.512;7.504;2022-08-07T12:27:29;24.70;56.30
5415;DHT22;2730;51.512;7.504;2022-08-07T12:30:02;24.80;56.60
5415;DHT22;2730;51.512;7.504;2022-08-07T12:32:33;25.00;56.60
5415;DHT22;2730;51.512;7.504;2022-08-07T12:35:06;25.00;56.80
5415;DHT22;2730;51.512;7.504;2022-08-07T12:37:35;25.00;56.70
5415;DHT22;2730;51.512;7.504;2022-08-07T12:40:06;25.00;57.60
5415;DHT22;2730;51.512;7.504;2022-08-07T12:42:36;25.00;57.70
5415;DHT22;2730;51.512;7.504;2022-08-07T12:45:08;24.70;57.20
5415;DHT22;2730;51.512;7.504;2022-08-07T12:47:41;24.80;57.50
5415;DHT22;2730;51.512;7.504;2022-08-07T12:50:19;25.00;57.50
5415;DHT22;2730;51.512;7.504;2022-08-07T12:52:50;25.20;57.20
5415;DHT22;2730;51.512;7.504;2022-08-07T12:55:22;25.30;57.40
5415;DHT22;2730;51.512;7.504;2022-08-07T12:57:51;25.20;57.10
5415;DHT22;2730;51.512;7.504;2022-08-07T13:00:20;25.00;57.20
5415;DHT22;2730;51.512;7.504;2022-08-07T13:03:03;25.00;56.40
5415;DHT22;2730;51.512;7.504;2022-08-07T13:05:50;25.00;57.10
5415;DHT22;2730;51.512;7.504;2022-08-07T13:08:39;24.90;56.60
5415;DHT22;2730;51.512;7.504;2022-08-07T13:11:23;24.80;56.60
5415;DHT22;2730;51.512;7.504;2022-08-07T13:13:59;24.90;56.70
5415;DHT22;2730;51.512;7.504;2022-08-07T13:16:31;24.70;55.60
5415;DHT22;2730;51.512;7.504;2022-08-07T13:19:07;24.60;55.80
5415;DHT22;2730;51.512;7.504;2022-08-07T13:21:40;24.80;56.30
5415;DHT22;2730;51.512;7.504;2022-08-07T13:24:19;25.00;56.50
5415;DHT22;2730;51.512;7.504;2022-08-07T13:26:51;24.90;55.20
5415;DHT22;2730;51.512;7.504;2022-08-07T13:29:34;24.90;55.90
5415;DHT22;2730;51.512;7.504;2022-08-07T13:32:04;25.00;54.90
5415;DHT22;2730;51.512;7.504;2022-08-07T13:34:41;24.90;54.60
5415;DHT22;2730;51.512;7.504;2022-08-07T13:37:17;24.90;54.80
5415;DHT22;2730;51.512;7.504;2022-08-07T13:39:55;24.80;54.30
5415;DHT22;2730;51.512;7.504;2022-08-07T13:42:25;24.70;55.20
5415;DHT22;2730;51.512;7.504;2022-08-07T13:44:54;24.90;55.00
5415;DHT22;2730;51.512;7.504;2022-08-07T13:47:25;25.10;55.70
5415;DHT22;2730;51.512;7.504;2022-08-07T13:49:56;25.20;54.50
5415;DHT22;2730;51.512;7.504;2022-08-07T13:52:26;25.10;54.70
5415;DHT22;2730;51.512;7.504;2022-08-07T13:54:56;25.10;55.70
5415;DHT22;2730;51.512;7.504;2022-08-07T13:57:26;25.00;55.50
5415;DHT22;2730;51.512;7.504;2022-08-07T13:59:54;25.00;55.20
5415;DHT22;2730;51.512;7.504;2022-08-07T14:02:26;24.80;56.00
5415;DHT22;2730;51.512;7.504;2022-08-07T14:05:03;24.60;56.70
5415;DHT22;2730;51.512;7.504;2022-08-07T14:07:33;24.60;57.30
5415;DHT22;2730;51.512;7.504;2022-08-07T14:10:04;24.80;56.90
5415;DHT22;2730;51.512;7.504;2022-08-07T14:12:35;24.90;56.70
5415;DHT22;2730;51.512;7.504;2022-08-07T14:15:09;24.90;56.40
5415;DHT22;2730;51.512;7.504;2022-08-07T14:17:43;25.00;57.40
5415;DHT22;2730;51.512;7.504;2022-08-07T14:20:17;25.10;56.70
5415;DHT22;2730;51.512;7.504;2022-08-07T14:22:51;25.10;57.20
5415;DHT22;2730;51.512;7.504;2022-08-07T14:25:24;25.00;57.40
5415;DHT22;2730;51.512;7.504;2022-08-07T14:27:54;25.00;58.00
5415;DHT22;2730;51.512;7.504;2022-08-07T14:30:23;25.00;57.60
5415;DHT22;2730;51.512;7.504;2022-08-07T14:32:54;25.00;57.50
5415;DHT22;2730;51.512;7.504;2022-08-07T14:35:23;24.80;57.90
5415;DHT22;2730;51.512;7.504;2022-08-07T14:37:52;24.80;57.40
5415;DHT22;2730;51.512;7.504;2022-08-07T14:40:22;24.90;58.00
5415;DHT22;2730;51.512;7.504;2022-08-07T14:42:55;24.90;57.60
5415;DHT22;2730;51.512;7.504;2022-08-07T14:45:24;25.00;58.00
5415;DHT22;2730;51.512;7.504;2022-08-07T14:47:53;25.00;57.60
5415;DHT22;2730;51.512;7.504;2022-08-07T14:50:22;24.90;57.40
5415;DHT22;2730;51.512;7.504;2022-08-07T14:52:53;24.90;56.80
5415;DHT22;2730;51.512;7.504;2022-08-07T14:55:22;24.90;57.40
5415;DHT22;2730;51.512;7.504;2022-08-07T14:57:54;25.00;57.60
5415;DHT22;2730;51.512;7.504;2022-08-07T15:00:27;24.90;58.10
5415;DHT22;2730;51.512;7.504;2022-08-07T15:02:56;25.00;57.80
5415;DHT22;2730;51.512;7.504;2022-08-07T15:05:23;25.00;57.80
5415;DHT22;2730;51.512;7.504;2022-08-07T15:07:52;24.80;57.30
5415;DHT22;2730;51.512;7.504;2022-08-07T15:10:22;24.80;58.00
5415;DHT22;2730;51.512;7.504;2022-08-07T15:12:52;24.70;57.80
5415;DHT22;2730;51.512;7.504;2022-08-07T15:15:23;24.80;57.80
5415;DHT22;2730;51.512;7.504;2022-08-07T15:17:58;24.80;57.70
5415;DHT22;2730;51.512;7.504;2022-08-07T15:20:34;24.80;58.00
5415;DHT22;2730;51.512;7.504;2022-08-07T15:23:08;24.80;58.00
5415;DHT22;2730;51.512;7.504;2022-08-07T15:25:39;24.80;58.50
5415;DHT22;2730;51.512;7.504;2022-08-07T15:28:11;25.00;58.40
5415;DHT22;2730;51.512;7.504;2022-08-07T15:30:40;25.00;58.40
5415;DHT22;2730;51.512;7.504;2022-08-07T15:33:10;25.10;58.90
5415;DHT22;2730;51.512;7.504;2022-08-07T15:35:42;25.00;58.50
5415;DHT22;2730;51.512;7.504;2022-08-07T15:38:11;25.10;58.40
5415;DHT22;2730;51.512;7.504;2022-08-07T15:40:38;25.20;58.20
5415;DHT22;2730;51.512;7.504;2022-08-07T15:43:14;25.00;58.10
5415;DHT22;2730;51.512;7.504;2022-08-07T15:45:42;25.00;58.50
5415;DHT22;2730;51.512;7.504;2022-08-07T15:48:17;25.00;58.70
5415;DHT22;2730;51.512;7.504;2022-08-07T15:50:47;25.10;59.00
5415;DHT22;2730;51.512;7.504;2022-08-07T15:53:23;25.20;59.30
5415;DHT22;2730;51.512;7.504;2022-08-07T15:55:53;25.10;58.30
5415;DHT22;2730;51.512;7.504;2022-08-07T15:58:27;25.10;57.80
5415;DHT22;2730;51.512;7.504;2022-08-07T16:00:58;25.00;58.20
5415;DHT22;2730;51.512;7.504;2022-08-07T16:03:30;24.90;59.20
5415;DHT22;2730;51.512;7.504;2022-08-07T16:05:58;24.90;59.70
5415;DHT22;2730;51.512;7.504;2022-08-07T16:08:28;25.00;58.80
5415;DHT22;2730;51.512;7.504;2022-08-07T16:10:59;25.10;59.20
5415;DHT22;2730;51.512;7.504;2022-08-07T16:13:49;25.10;59.00
5415;DHT22;2730;51.512;7.504;2022-08-07T16:16:26;25.00;59.20
5415;DHT22;2730;51.512;7.504;2022-08-07T16:19:17;24.90;58.80
5415;DHT22;2730;51.512;7.504;2022-08-07T16:21:48;24.80;58.80
5415;DHT22;2730;51.512;7.504;2022-08-07T16:24:27;24.60;58.80
5415;DHT22;2730;51.512;7.504;2022-08-07T16:27:05;24.50;59.00
5415;DHT22;2730;51.512;7.504;2022-08-07T16:29:52;24.50;59.20
5415;DHT22;2730;51.512;7.504;2022-08-07T16:32:31;24.50;59.50
5415;DHT22;2730;51.512;7.504;2022-08-07T16:35:10;24.50;59.30
5415;DHT22;2730;51.512;7.504;2022-08-07T16:38:18;24.40;59.90
5415;DHT22;2730;51.512;7.504;2022-08-07T16:41:37;24.40;60.60
5415;DHT22;2730;51.512;7.504;2022-08-07T16:44:23;24.30;60.60
5415;DHT22;2730;51.512;7.504;2022-08-07T16:47:24;24.30;60.80
5415;DHT22;2730;51.512;7.504;2022-08-07T16:50:19;24.40;60.80
5415;DHT22;2730;51.512;7.504;2022-08-07T16:53:05;24.30;60.50
5415;DHT22;2730;51.512;7.504;2022-08-07T16:55:41;24.30;60.20
5415;DHT22;2730;51.512;7.504;2022-08-07T16:58:21;24.20;60.60
5415;DHT22;2730;51.512;7.504;2022-08-07T17:01:01;24.10;60.90
5415;DHT22;2730;51.512;7.504;2022-08-07T17:03:42;24.10;61.30
5415;DHT22;2730;51.512;7.504;2022-08-07T17:06:36;24.10;61.90
5415;DHT22;2730;51.512;7.504;2022-08-07T17:09:11;24.10;62.00
5415;DHT22;2730;51.512;7.504;2022-08-07T17:11:45;24.10;62.30
5415;DHT22;2730;51.512;7.504;2022-08-07T17:14:20;24.10;62.00
5415;DHT22;2730;51.512;7.504;2022-08-07T17:16:50;24.00;61.90
5415;DHT22;2730;51.512;7.504;2022-08-07T17:19:25;24.00;61.70
5415;DHT22;2730;51.512;7.504;2022-08-07T17:22:02;24.00;61.80
5415;DHT22;2730;51.512;7.504;2022-08-07T17:24:45;23.90;62.20
5415;DHT22;2730;51.512;7.504;2022-08-07T17:27:16;23.90;62.40
5415;DHT22;2730;51.512;7.504;2022-08-07T17:30:05;23.80;62.40
5415;DHT22;2730;51.512;7.504;2022-08-07T17:32:46;23.70;62.60
5415;DHT22;2730;51.512;7.504;2022-08-07T17:35:19;23.70;62.70
5415;DHT22;2730;51.512;7.504;2022-08-07T17:37:54;23.70;62.50
5415;DHT22;2730;51.512;7.504;2022-08-07T17:40:27;23.60;62.10
5415;DHT22;2730;51.512;7.504;2022-08-07T17:43:02;23.60;62.20
5415;DHT22;2730;51.512;7.504;2022-08-07T17:45:36;23.60;62.20
5415;DHT22;2730;51.512;7.504;2022-08-07T17:48:09;23.50;62.50
5415;DHT22;2730;51.512;7.504;2022-08-07T17:50:50;23.50;62.50
5415;DHT22;2730;51.512;7.504;2022-08-07T17:53:27;23.50;63.20
5415;DHT22;2730;51.512;7.504;2022-08-07T17:56:00;23.50;63.60
5415;DHT22;2730;51.512;7.504;2022-08-07T17:58:34;23.40;64.00
5415;DHT22;2730;51.512;7.504;2022-08-07T18:01:10;23.30;63.90
5415;DHT22;2730;51.512;7.504;2022-08-07T18:03:46;23.20;63.90
5415;DHT22;2730;51.512;7.504;2022-08-07T18:06:14;23.20;64.20
5415;DHT22;2730;51.512;7.504;2022-08-07T18:08:47;23.10;64.20
5415;DHT22;2730;51.512;7.504;2022-08-07T18:11:17;23.00;64.50
5415;DHT22;2730;51.512;7.504;2022-08-07T18:13:48;23.00;64.70
5415;DHT22;2730;51.512;7.504;2022-08-07T18:16:31;22.90;64.50
5415;DHT22;2730;51.512;7.504;2022-08-07T18:19:07;22.90;64.80
5415;DHT22;2730;51.512;7.504;2022-08-07T18:21:37;22.90;65.20
5415;DHT22;2730;51.512;7.504;2022-08-07T18:24:09;22.80;65.10
5415;DHT22;2730;51.512;7.504;2022-08-07T18:27:18;22.80;65.10
5415;DHT22;2730;51.512;7.504;2022-08-07T18:30:02;22.80;65.30
5415;DHT22;2730;51.512;7.504;2022-08-07T18:32:43;22.70;65.50
5415;DHT22;2730;51.512;7.504;2022-08-07T18:35:16;22.70;65.40
5415;DHT22;2730;51.512;7.504;2022-08-07T18:37:54;22.70;65.50
5415;DHT22;2730;51.512;7.504;2022-08-07T18:40:29;22.60;65.40
5415;DHT22;2730;51.512;7.504;2022-08-07T18:43:02;22.50;65.50
5415;DHT22;2730;51.512;7.504;2022-08-07T18:45:42;22.50;65.70
5415;DHT22;2730;51.512;7.504;2022-08-07T18:48:23;22.50;66.20
5415;DHT22;2730;51.512;7.504;2022-08-07T18:51:11;22.40;66.30
5415;DHT22;2730;51.512;7.504;2022-08-07T18:53:51;22.30;66.70
5415;DHT22;2730;51.512;7.504;2022-08-07T18:56:29;22.20;67.10
5415;DHT22;2730;51.512;7.504;2022-08-07T18:59:04;22.20;67.50
5415;DHT22;2730;51.512;7.504;2022-08-07T19:01:40;22.10;67.80
5415;DHT22;2730;51.512;7.504;2022-08-07T19:04:13;22.00;68.10
5415;DHT22;2730;51.512;7.504;2022-08-07T19:06:47;22.00;68.40
5415;DHT22;2730;51.512;7.504;2022-08-07T19:09:22;21.90;68.50
5415;DHT22;2730;51.512;7.504;2022-08-07T19:12:02;21.80;68.90
5415;DHT22;2730;51.512;7.504;2022-08-07T19:14:48;21.70;69.50
5415;DHT22;2730;51.512;7.504;2022-08-07T19:17:18;21.60;69.90
5415;DHT22;2730;51.512;7.504;2022-08-07T19:19:57;21.50;70.20
5415;DHT22;2730;51.512;7.504;2022-08-07T19:22:33;21.50;70.80
5415;DHT22;2730;51.512;7.504;2022-08-07T19:25:01;21.40;70.90
5415;DHT22;2730;51.512;7.504;2022-08-07T19:27:30;21.40;71.30
5415;DHT22;2730;51.512;7.504;2022-08-07T19:30:02;21.40;71.70
5415;DHT22;2730;51.512;7.504;2022-08-07T19:32:37;21.30;71.80
5415;DHT22;2730;51.512;7.504;2022-08-07T19:35:18;21.30;72.30
5415;DHT22;2730;51.512;7.504;2022-08-07T19:37:49;21.20;73.40
5415;DHT22;2730;51.512;7.504;2022-08-07T19:40:18;21.00;73.30
5415;DHT22;2730;51.512;7.504;2022-08-07T19:42:47;20.90;73.80
5415;DHT22;2730;51.512;7.504;2022-08-07T19:45:17;20.90;75.60
5415;DHT22;2730;51.512;7.504;2022-08-07T19:47:48;20.90;75.20
5415;DHT22;2730;51.512;7.504;2022-08-07T19:50:20;20.70;75.80
5415;DHT22;2730;51.512;7.504;2022-08-07T19:52:48;20.60;75.90
5415;DHT22;2730;51.512;7.504;2022-08-07T19:55:16;20.50;76.40
5415;DHT22;2730;51.512;7.504;2022-08-07T19:57:46;20.40;76.90
5415;DHT22;2730;51.512;7.504;2022-08-07T20:00:19;20.30;77.50
5415;DHT22;2730;51.512;7.504;2022-08-07T20:02:49;20.20;78.00
5415;DHT22;2730;51.512;7.504;2022-08-07T20:05:20;20.20;78.60
5415;DHT22;2730;51.512;7.504;2022-08-07T20:07:53;20.00;79.20
5415;DHT22;2730;51.512;7.504;2022-08-07T20:10:28;20.00;79.60
5415;DHT22;2730;51.512;7.504;2022-08-07T20:12:57;19.80;80.00
5415;DHT22;2730;51.512;7.504;2022-08-07T20:15:30;19.80;81.90
5415;DHT22;2730;51.512;7.504;2022-08-07T20:17:58;19.70;82.00
5415;DHT22;2730;51.512;7.504;2022-08-07T20:20:28;19.60;82.70
5415;DHT22;2730;51.512;7.504;2022-08-07T20:22:59;19.50;83.20
5415;DHT22;2730;51.512;7.504;2022-08-07T20:25:28;19.50;83.80
5415;DHT22;2730;51.512;7.504;2022-08-07T20:27:56;19.40;84.90
5415;DHT22;2730;51.512;7.504;2022-08-07T20:30:29;19.40;84.10
5415;DHT22;2730;51.512;7.504;2022-08-07T20:32:58;19.30;84.60
5415;DHT22;2730;51.512;7.504;2022-08-07T20:35:33;19.30;85.30
5415;DHT22;2730;51.512;7.504;2022-08-07T20:38:02;19.30;85.70
5415;DHT22;2730;51.512;7.504;2022-08-07T20:40:37;19.20;86.40
5415;DHT22;2730;51.512;7.504;2022-08-07T20:43:05;19.10;87.00
5415;DHT22;2730;51.512;7.504;2022-08-07T20:45:32;19.10;87.40
5415;DHT22;2730;51.512;7.504;2022-08-07T20:48:01;19.10;87.80
5415;DHT22;2730;51.512;7.504;2022-08-07T20:50:30;19.00;88.70
5415;DHT22;2730;51.512;7.504;2022-08-07T20:52:58;19.00;89.20
5415;DHT22;2730;51.512;7.504;2022-08-07T20:55:25;18.90;89.40
5415;DHT22;2730;51.512;7.504;2022-08-07T20:57:55;19.00;90.10
5415;DHT22;2730;51.512;7.504;2022-08-07T21:00:30;18.90;90.20
5415;DHT22;2730;51.512;7.504;2022-08-07T21:03:00;18.80;90.50
5415;DHT22;2730;51.512;7.504;2022-08-07T21:05:33;18.80;90.80
5415;DHT22;2730;51.512;7.504;2022-08-07T21:08:04;18.70;91.30
5415;DHT22;2730;51.512;7.504;2022-08-07T21:10:33;18.60;91.40
5415;DHT22;2730;51.512;7.504;2022-08-07T21:13:04;18.60;91.60
5415;DHT22;2730;51.512;7.504;2022-08-07T21:15:34;18.50;91.90
5415;DHT22;2730;51.512;7.504;2022-08-07T21:18:05;18.50;92.20
5415;DHT22;2730;51.512;7.504;2022-08-07T21:20:34;18.40;92.30
5415;DHT22;2730;51.512;7.504;2022-08-07T21:23:06;18.40;92.60
5415;DHT22;2730;51.512;7.504;2022-08-07T21:25:45;18.40;93.10
5415;DHT22;2730;51.512;7.504;2022-08-07T21:28:16;18.40;93.20
5415;DHT22;2730;51.512;7.504;2022-08-07T21:30:49;18.30;93.60
5415;DHT22;2730;51.512;7.504;2022-08-07T21:33:21;18.30;94.00
5415;DHT22;2730;51.512;7.504;2022-08-07T21:35:55;18.20;94.40
5415;DHT22;2730;51.512;7.504;2022-08-07T21:38:27;18.10;94.80
5415;DHT22;2730;51.512;7.504;2022-08-07T21:41:02;18.00;95.70
5415;DHT22;2730;51.512;7.504;2022-08-07T21:43:39;18.00;96.10
5415;DHT22;2730;51.512;7.504;2022-08-07T21:46:13;17.90;96.50
5415;DHT22;2730;51.512;7.504;2022-08-07T21:48:48;17.90;96.60
5415;DHT22;2730;51.512;7.504;2022-08-07T21:51:27;17.90;97.00